KSLB/SLB METAR and TAF weather

Enter ICAO airport designator
Station Type Date Time Source
KSLB METAR 2020/09/22 18:15 UTC NOAA

KSLB 221815Z AUTO 20011G16KT 10SM CLR 27/12 A3006 RMK AO2


Station Type Date Time Source
KSLB Decoded METAR 2020/09/22 18:15 UTC NOAA

Storm Lake, IA, United States (KSLB) 42-36N 095-14W
Sep 22, 2020 - 02:15 PM EDT / 2020.09.22 1815 UTC
Wind: from the SSW (200 degrees) at 13 MPH (11 KT) gusting to 18 MPH (16 KT):0
Visibility: 10 mile(s):0
Sky conditions: clear
Temperature: 80 F (27 C)
Dew Point: 53 F (12 C)
Relative Humidity: 39%
Pressure (altimeter): 30.06 in. Hg (1017 hPa)
ob: KSLB 221815Z AUTO 20011G16KT 10SM CLR 27/12 A3006 RMK AO2
cycle: 18

Station Type Date Time Source
KSLB TAF UTC NOAA

Error!

Example: see airport list